Terminal Aerodrome Forecast
Issued by NWS Twin Cities, MN

Home | Current Version | Previous Version | Text Only | Print | Product List | Glossary Off
Versions: 1 2 3 4 5 6 7 8 9 10 11 12 13 14 15 16 17 18

000
FTUS43 KMPX 110500
TAFEAU
TAF
KEAU 110530Z 1106/1206 17007KT P6SM FEW060 BKN250
     FM111000 17006KT P6SM VCSH SCT045 BKN080 OVC250
     FM111500 19012G18KT P6SM -SHRA BKN040 OVC080 PROB30 1121/1202
      4SM TSRA OVC040CB=

USA.gov is the U.S. government's official web portal to all federal, state and local government web resources and services.